sensor_id;sensor_type;location;lat;lon;timestamp;P1;durP1;ratioP1;P2;durP2;ratioP2
3280;SDS011;1652;51.318;6.202;2023-06-26T00:00:53;15.30;;;13.90;;
3280;SDS011;1652;51.318;6.202;2023-06-26T00:03:20;13.97;;;12.77;;
3280;SDS011;1652;51.318;6.202;2023-06-26T00:05:47;13.10;;;11.83;;
3280;SDS011;1652;51.318;6.202;2023-06-26T00:08:14;14.20;;;13.00;;
3280;SDS011;1652;51.318;6.202;2023-06-26T00:10:41;14.30;;;12.93;;
3280;SDS011;1652;51.318;6.202;2023-06-26T00:13:07;14.20;;;13.00;;
3280;SDS011;1652;51.318;6.202;2023-06-26T00:15:34;13.50;;;12.40;;
3280;SDS011;1652;51.318;6.202;2023-06-26T00:18:01;14.70;;;13.23;;
3280;SDS011;1652;51.318;6.202;2023-06-26T00:20:30;15.60;;;14.10;;
3280;SDS011;1652;51.318;6.202;2023-06-26T00:23:00;14.53;;;13.13;;
3280;SDS011;1652;51.318;6.202;2023-06-26T00:25:27;15.13;;;13.73;;
3280;SDS011;1652;51.318;6.202;2023-06-26T00:27:54;13.90;;;12.70;;
3280;SDS011;1652;51.318;6.202;2023-06-26T00:30:21;14.20;;;13.10;;
3280;SDS011;1652;51.318;6.202;2023-06-26T00:32:48;14.57;;;13.17;;
3280;SDS011;1652;51.318;6.202;2023-06-26T00:35:15;13.80;;;12.60;;
3280;SDS011;1652;51.318;6.202;2023-06-26T00:37:41;14.00;;;12.40;;
3280;SDS011;1652;51.318;6.202;2023-06-26T00:40:09;22.63;;;13.00;;
3280;SDS011;1652;51.318;6.202;2023-06-26T00:42:36;17.10;;;12.67;;
3280;SDS011;1652;51.318;6.202;2023-06-26T00:45:03;18.60;;;13.13;;
3280;SDS011;1652;51.318;6.202;2023-06-26T00:47:30;15.00;;;13.60;;
3280;SDS011;1652;51.318;6.202;2023-06-26T00:49:57;13.20;;;12.20;;
3280;SDS011;1652;51.318;6.202;2023-06-26T00:52:24;14.07;;;12.60;;
3280;SDS011;1652;51.318;6.202;2023-06-26T00:54:51;14.00;;;12.60;;
3280;SDS011;1652;51.318;6.202;2023-06-26T00:57:19;13.83;;;12.43;;
3280;SDS011;1652;51.318;6.202;2023-06-26T00:59:45;13.37;;;12.27;;
3280;SDS011;1652;51.318;6.202;2023-06-26T01:02:12;13.27;;;12.17;;
3280;SDS011;1652;51.318;6.202;2023-06-26T01:04:49;14.30;;;13.10;;
3280;SDS011;1652;51.318;6.202;2023-06-26T01:07:18;15.10;;;13.20;;
3280;SDS011;1652;51.318;6.202;2023-06-26T01:09:46;14.70;;;11.37;;
3280;SDS011;1652;51.318;6.202;2023-06-26T01:12:14;12.73;;;11.50;;
3280;SDS011;1652;51.318;6.202;2023-06-26T01:14:41;13.37;;;11.80;;
3280;SDS011;1652;51.318;6.202;2023-06-26T01:17:09;12.07;;;11.17;;
3280;SDS011;1652;51.318;6.202;2023-06-26T01:19:41;12.47;;;11.47;;
3280;SDS011;1652;51.318;6.202;2023-06-26T01:24:56;10.73;;;9.90;;
3280;SDS011;1652;51.318;6.202;2023-06-26T01:27:48;11.27;;;10.30;;
3280;SDS011;1652;51.318;6.202;2023-06-26T01:30:16;15.70;;;10.50;;
3280;SDS011;1652;51.318;6.202;2023-06-26T01:32:46;11.40;;;10.40;;
3280;SDS011;1652;51.318;6.202;2023-06-26T01:35:14;10.80;;;9.90;;
3280;SDS011;1652;51.318;6.202;2023-06-26T01:37:42;9.27;;;8.57;;
3280;SDS011;1652;51.318;6.202;2023-06-26T01:40:08;15.00;;;10.70;;
3280;SDS011;1652;51.318;6.202;2023-06-26T01:42:36;10.07;;;9.17;;
3280;SDS011;1652;51.318;6.202;2023-06-26T01:45:18;11.10;;;10.13;;
3280;SDS011;1652;51.318;6.202;2023-06-26T01:47:53;9.07;;;8.37;;
3280;SDS011;1652;51.318;6.202;2023-06-26T01:50:24;10.53;;;8.83;;
3280;SDS011;1652;51.318;6.202;2023-06-26T01:55:39;8.33;;;7.70;;
3280;SDS011;1652;51.318;6.202;2023-06-26T01:58:10;8.37;;;7.83;;
3280;SDS011;1652;51.318;6.202;2023-06-26T02:00:38;9.20;;;8.40;;
3280;SDS011;1652;51.318;6.202;2023-06-26T02:03:06;8.67;;;7.97;;
3280;SDS011;1652;51.318;6.202;2023-06-26T02:08:05;8.27;;;7.67;;
3280;SDS011;1652;51.318;6.202;2023-06-26T02:10:32;8.37;;;7.87;;
3280;SDS011;1652;51.318;6.202;2023-06-26T02:12:59;9.37;;;8.67;;
3280;SDS011;1652;51.318;6.202;2023-06-26T02:15:26;8.07;;;7.47;;
3280;SDS011;1652;51.318;6.202;2023-06-26T02:17:53;9.27;;;8.57;;
3280;SDS011;1652;51.318;6.202;2023-06-26T02:20:20;9.00;;;8.40;;
3280;SDS011;1652;51.318;6.202;2023-06-26T02:22:47;9.83;;;8.80;;
3280;SDS011;1652;51.318;6.202;2023-06-26T02:25:14;10.03;;;9.30;;
3280;SDS011;1652;51.318;6.202;2023-06-26T02:27:41;10.80;;;9.80;;
3280;SDS011;1652;51.318;6.202;2023-06-26T02:30:08;10.40;;;9.40;;
3280;SDS011;1652;51.318;6.202;2023-06-26T02:32:36;10.27;;;9.50;;
3280;SDS011;1652;51.318;6.202;2023-06-26T02:35:03;10.50;;;9.60;;
3280;SDS011;1652;51.318;6.202;2023-06-26T02:37:30;10.10;;;9.30;;
3280;SDS011;1652;51.318;6.202;2023-06-26T02:39:57;9.87;;;8.90;;
3280;SDS011;1652;51.318;6.202;2023-06-26T02:42:24;10.50;;;9.20;;
3280;SDS011;1652;51.318;6.202;2023-06-26T02:44:51;10.83;;;9.73;;
3280;SDS011;1652;51.318;6.202;2023-06-26T02:47:18;9.63;;;8.73;;
3280;SDS011;1652;51.318;6.202;2023-06-26T02:49:45;10.83;;;9.60;;
3280;SDS011;1652;51.318;6.202;2023-06-26T02:52:11;29.03;;;10.30;;
3280;SDS011;1652;51.318;6.202;2023-06-26T02:54:38;10.30;;;8.83;;
3280;SDS011;1652;51.318;6.202;2023-06-26T02:57:05;10.60;;;9.70;;
3280;SDS011;1652;51.318;6.202;2023-06-26T02:59:32;9.57;;;8.77;;
3280;SDS011;1652;51.318;6.202;2023-06-26T03:01:59;10.60;;;9.23;;
3280;SDS011;1652;51.318;6.202;2023-06-26T03:04:26;9.63;;;8.93;;
3280;SDS011;1652;51.318;6.202;2023-06-26T03:06:53;10.03;;;9.10;;
3280;SDS011;1652;51.318;6.202;2023-06-26T03:09:20;7.93;;;7.53;;
3280;SDS011;1652;51.318;6.202;2023-06-26T03:11:48;9.67;;;8.87;;
3280;SDS011;1652;51.318;6.202;2023-06-26T03:14:15;8.80;;;8.20;;
3280;SDS011;1652;51.318;6.202;2023-06-26T03:16:42;10.03;;;9.00;;
3280;SDS011;1652;51.318;6.202;2023-06-26T03:19:09;9.23;;;8.53;;
3280;SDS011;1652;51.318;6.202;2023-06-26T03:21:36;9.07;;;8.27;;
3280;SDS011;1652;51.318;6.202;2023-06-26T03:24:02;9.77;;;8.80;;
3280;SDS011;1652;51.318;6.202;2023-06-26T03:26:29;10.53;;;9.07;;
3280;SDS011;1652;51.318;6.202;2023-06-26T03:28:56;10.87;;;9.07;;
3280;SDS011;1652;51.318;6.202;2023-06-26T03:31:23;9.47;;;8.57;;
3280;SDS011;1652;51.318;6.202;2023-06-26T03:33:50;9.00;;;8.30;;
3280;SDS011;1652;51.318;6.202;2023-06-26T03:36:17;8.63;;;7.17;;
3280;SDS011;1652;51.318;6.202;2023-06-26T03:38:44;8.53;;;7.73;;
3280;SDS011;1652;51.318;6.202;2023-06-26T03:41:11;7.27;;;6.67;;
3280;SDS011;1652;51.318;6.202;2023-06-26T03:43:38;8.03;;;7.37;;
3280;SDS011;1652;51.318;6.202;2023-06-26T03:46:05;6.43;;;6.03;;
3280;SDS011;1652;51.318;6.202;2023-06-26T03:48:32;8.90;;;6.07;;
3280;SDS011;1652;51.318;6.202;2023-06-26T03:50:59;6.70;;;6.07;;
3280;SDS011;1652;51.318;6.202;2023-06-26T03:53:28;7.00;;;6.30;;
3280;SDS011;1652;51.318;6.202;2023-06-26T03:55:55;8.63;;;5.90;;
3280;SDS011;1652;51.318;6.202;2023-06-26T03:58:25;7.13;;;6.20;;
3280;SDS011;1652;51.318;6.202;2023-06-26T04:00:52;10.30;;;6.13;;
3280;SDS011;1652;51.318;6.202;2023-06-26T04:03:19;6.30;;;5.70;;
3280;SDS011;1652;51.318;6.202;2023-06-26T04:05:46;6.90;;;6.23;;
3280;SDS011;1652;51.318;6.202;2023-06-26T04:08:13;6.70;;;6.10;;
3280;SDS011;1652;51.318;6.202;2023-06-26T04:10:40;7.10;;;6.40;;
3280;SDS011;1652;51.318;6.202;2023-06-26T04:13:07;6.37;;;5.87;;
3280;SDS011;1652;51.318;6.202;2023-06-26T04:15:34;5.27;;;4.87;;
3280;SDS011;1652;51.318;6.202;2023-06-26T04:18:01;12.23;;;5.33;;
3280;SDS011;1652;51.318;6.202;2023-06-26T04:20:28;6.20;;;5.60;;
3280;SDS011;1652;51.318;6.202;2023-06-26T04:22:55;5.60;;;5.10;;
3280;SDS011;1652;51.318;6.202;2023-06-26T04:25:21;5.33;;;5.03;;
3280;SDS011;1652;51.318;6.202;2023-06-26T04:27:48;7.73;;;5.53;;
3280;SDS011;1652;51.318;6.202;2023-06-26T04:30:15;6.00;;;5.13;;
3280;SDS011;1652;51.318;6.202;2023-06-26T04:32:42;7.83;;;5.83;;
3280;SDS011;1652;51.318;6.202;2023-06-26T04:35:09;7.70;;;5.30;;
3280;SDS011;1652;51.318;6.202;2023-06-26T04:37:36;10.97;;;5.13;;
3280;SDS011;1652;51.318;6.202;2023-06-26T04:40:03;5.27;;;4.93;;
3280;SDS011;1652;51.318;6.202;2023-06-26T04:42:30;5.93;;;5.00;;
3280;SDS011;1652;51.318;6.202;2023-06-26T04:44:58;9.53;;;5.70;;
3280;SDS011;1652;51.318;6.202;2023-06-26T04:47:25;5.57;;;5.20;;
3280;SDS011;1652;51.318;6.202;2023-06-26T04:49:51;7.83;;;5.07;;
3280;SDS011;1652;51.318;6.202;2023-06-26T04:52:18;6.10;;;5.33;;
3280;SDS011;1652;51.318;6.202;2023-06-26T04:54:45;7.53;;;4.90;;
3280;SDS011;1652;51.318;6.202;2023-06-26T04:57:12;14.47;;;4.60;;
3280;SDS011;1652;51.318;6.202;2023-06-26T04:59:41;9.10;;;4.80;;
3280;SDS011;1652;51.318;6.202;2023-06-26T05:02:07;6.13;;;4.40;;
3280;SDS011;1652;51.318;6.202;2023-06-26T05:04:34;5.70;;;4.87;;
3280;SDS011;1652;51.318;6.202;2023-06-26T05:07:01;5.13;;;4.83;;
3280;SDS011;1652;51.318;6.202;2023-06-26T05:09:28;6.13;;;4.87;;
3280;SDS011;1652;51.318;6.202;2023-06-26T05:11:56;5.57;;;5.07;;
3280;SDS011;1652;51.318;6.202;2023-06-26T05:14:22;9.23;;;5.37;;
3280;SDS011;1652;51.318;6.202;2023-06-26T05:16:50;5.23;;;4.73;;
3280;SDS011;1652;51.318;6.202;2023-06-26T05:19:17;5.30;;;4.90;;
3280;SDS011;1652;51.318;6.202;2023-06-26T05:21:44;4.97;;;4.10;;
3280;SDS011;1652;51.318;6.202;2023-06-26T05:24:12;4.50;;;4.30;;
3280;SDS011;1652;51.318;6.202;2023-06-26T05:26:41;5.50;;;5.00;;
3280;SDS011;1652;51.318;6.202;2023-06-26T05:29:09;5.77;;;4.70;;
3280;SDS011;1652;51.318;6.202;2023-06-26T05:31:36;5.27;;;4.77;;
3280;SDS011;1652;51.318;6.202;2023-06-26T05:34:08;5.70;;;4.07;;
3280;SDS011;1652;51.318;6.202;2023-06-26T05:36:37;7.00;;;4.87;;
3280;SDS011;1652;51.318;6.202;2023-06-26T05:39:07;5.17;;;4.70;;
3280;SDS011;1652;51.318;6.202;2023-06-26T05:41:34;6.10;;;4.27;;
3280;SDS011;1652;51.318;6.202;2023-06-26T05:44:01;10.30;;;4.57;;
3280;SDS011;1652;51.318;6.202;2023-06-26T05:46:29;6.87;;;4.03;;
3280;SDS011;1652;51.318;6.202;2023-06-26T05:48:55;5.87;;;4.77;;
3280;SDS011;1652;51.318;6.202;2023-06-26T05:51:23;7.60;;;4.73;;
3280;SDS011;1652;51.318;6.202;2023-06-26T05:53:50;7.63;;;4.65;;
3280;SDS011;1652;51.318;6.202;2023-06-26T05:56:17;7.20;;;4.03;;
3280;SDS011;1652;51.318;6.202;2023-06-26T05:58:45;9.23;;;4.40;;
3280;SDS011;1652;51.318;6.202;2023-06-26T06:01:12;9.30;;;4.83;;
3280;SDS011;1652;51.318;6.202;2023-06-26T06:03:40;5.13;;;4.25;;
3280;SDS011;1652;51.318;6.202;2023-06-26T06:06:07;11.05;;;4.72;;
3280;SDS011;1652;51.318;6.202;2023-06-26T06:08:34;7.55;;;4.32;;
3280;SDS011;1652;51.318;6.202;2023-06-26T06:11:01;8.32;;;4.63;;
3280;SDS011;1652;51.318;6.202;2023-06-26T06:13:28;9.02;;;4.60;;
3280;SDS011;1652;51.318;6.202;2023-06-26T06:15:55;4.20;;;3.90;;
3280;SDS011;1652;51.318;6.202;2023-06-26T06:18:22;11.73;;;5.03;;
3280;SDS011;1652;51.318;6.202;2023-06-26T06:20:49;5.57;;;4.70;;
3280;SDS011;1652;51.318;6.202;2023-06-26T06:23:16;11.50;;;4.45;;
3280;SDS011;1652;51.318;6.202;2023-06-26T06:25:43;6.20;;;3.92;;
3280;SDS011;1652;51.318;6.202;2023-06-26T06:28:10;5.95;;;4.53;;
3280;SDS011;1652;51.318;6.202;2023-06-26T06:30:37;7.22;;;4.32;;
3280;SDS011;1652;51.318;6.202;2023-06-26T06:33:11;5.40;;;4.28;;
3280;SDS011;1652;51.318;6.202;2023-06-26T06:35:38;3.88;;;3.65;;
3280;SDS011;1652;51.318;6.202;2023-06-26T06:38:05;14.15;;;4.63;;
3280;SDS011;1652;51.318;6.202;2023-06-26T06:40:32;7.35;;;4.55;;
3280;SDS011;1652;51.318;6.202;2023-06-26T06:42:59;6.10;;;4.63;;
3280;SDS011;1652;51.318;6.202;2023-06-26T06:45:26;7.10;;;3.70;;
3280;SDS011;1652;51.318;6.202;2023-06-26T06:47:53;4.68;;;3.70;;
3280;SDS011;1652;51.318;6.202;2023-06-26T06:50:20;10.23;;;3.78;;
3280;SDS011;1652;51.318;6.202;2023-06-26T06:52:47;6.20;;;3.35;;
3280;SDS011;1652;51.318;6.202;2023-06-26T06:55:13;8.95;;;4.18;;
3280;SDS011;1652;51.318;6.202;2023-06-26T06:57:40;5.22;;;4.00;;
3280;SDS011;1652;51.318;6.202;2023-06-26T07:00:08;7.60;;;4.13;;
3280;SDS011;1652;51.318;6.202;2023-06-26T07:02:38;10.50;;;4.00;;
3280;SDS011;1652;51.318;6.202;2023-06-26T07:05:06;3.55;;;3.25;;
3280;SDS011;1652;51.318;6.202;2023-06-26T07:07:34;8.15;;;3.88;;
3280;SDS011;1652;51.318;6.202;2023-06-26T07:10:08;5.47;;;4.38;;
3280;SDS011;1652;51.318;6.202;2023-06-26T07:12:37;5.88;;;3.60;;
3280;SDS011;1652;51.318;6.202;2023-06-26T07:15:04;5.68;;;4.35;;
3280;SDS011;1652;51.318;6.202;2023-06-26T07:17:32;4.07;;;3.78;;
3280;SDS011;1652;51.318;6.202;2023-06-26T07:20:00;7.60;;;3.75;;
3280;SDS011;1652;51.318;6.202;2023-06-26T07:22:32;5.10;;;3.25;;
3280;SDS011;1652;51.318;6.202;2023-06-26T07:24:59;12.55;;;5.07;;
3280;SDS011;1652;51.318;6.202;2023-06-26T07:27:26;8.88;;;7.85;;
3280;SDS011;1652;51.318;6.202;2023-06-26T07:29:53;4.88;;;3.88;;
3280;SDS011;1652;51.318;6.202;2023-06-26T07:32:20;6.55;;;3.80;;
3280;SDS011;1652;51.318;6.202;2023-06-26T07:34:47;5.13;;;3.40;;
3280;SDS011;1652;51.318;6.202;2023-06-26T07:37:14;7.85;;;3.22;;
3280;SDS011;1652;51.318;6.202;2023-06-26T07:39:41;8.98;;;3.50;;
3280;SDS011;1652;51.318;6.202;2023-06-26T07:42:07;8.00;;;3.58;;
3280;SDS011;1652;51.318;6.202;2023-06-26T07:44:34;6.45;;;4.10;;
3280;SDS011;1652;51.318;6.202;2023-06-26T07:47:01;6.45;;;3.22;;
3280;SDS011;1652;51.318;6.202;2023-06-26T07:49:29;7.90;;;4.07;;
3280;SDS011;1652;51.318;6.202;2023-06-26T07:51:56;6.53;;;3.13;;
3280;SDS011;1652;51.318;6.202;2023-06-26T07:54:23;7.38;;;3.83;;
3280;SDS011;1652;51.318;6.202;2023-06-26T07:56:59;6.70;;;4.40;;
3280;SDS011;1652;51.318;6.202;2023-06-26T07:59:28;7.30;;;3.50;;
3280;SDS011;1652;51.318;6.202;2023-06-26T08:01:56;9.37;;;3.27;;
3280;SDS011;1652;51.318;6.202;2023-06-26T08:04:24;9.57;;;3.37;;
3280;SDS011;1652;51.318;6.202;2023-06-26T08:06:53;6.57;;;3.70;;
3280;SDS011;1652;51.318;6.202;2023-06-26T08:09:22;9.40;;;3.40;;
3280;SDS011;1652;51.318;6.202;2023-06-26T08:11:50;11.20;;;4.37;;
3280;SDS011;1652;51.318;6.202;2023-06-26T08:14:18;7.97;;;3.20;;
3280;SDS011;1652;51.318;6.202;2023-06-26T08:16:46;14.10;;;3.27;;
3280;SDS011;1652;51.318;6.202;2023-06-26T08:19:16;7.17;;;2.73;;
3280;SDS011;1652;51.318;6.202;2023-06-26T08:21:44;4.10;;;2.92;;
3280;SDS011;1652;51.318;6.202;2023-06-26T08:24:12;4.35;;;2.80;;
3280;SDS011;1652;51.318;6.202;2023-06-26T08:26:45;5.35;;;3.20;;
3280;SDS011;1652;51.318;6.202;2023-06-26T08:29:13;3.97;;;2.65;;
3280;SDS011;1652;51.318;6.202;2023-06-26T08:31:41;5.35;;;2.85;;
3280;SDS011;1652;51.318;6.202;2023-06-26T08:34:09;22.20;;;3.50;;
3280;SDS011;1652;51.318;6.202;2023-06-26T08:36:36;4.18;;;3.45;;
3280;SDS011;1652;51.318;6.202;2023-06-26T08:39:03;5.47;;;2.83;;
3280;SDS011;1652;51.318;6.202;2023-06-26T08:41:32;10.23;;;3.73;;
3280;SDS011;1652;51.318;6.202;2023-06-26T08:43:59;6.88;;;3.38;;
3280;SDS011;1652;51.318;6.202;2023-06-26T08:46:26;11.25;;;4.18;;
3280;SDS011;1652;51.318;6.202;2023-06-26T08:48:55;7.03;;;3.07;;
3280;SDS011;1652;51.318;6.202;2023-06-26T08:51:28;5.60;;;3.13;;
3280;SDS011;1652;51.318;6.202;2023-06-26T08:54:00;14.70;;;4.47;;
3280;SDS011;1652;51.318;6.202;2023-06-26T08:56:28;3.80;;;2.40;;
3280;SDS011;1652;51.318;6.202;2023-06-26T08:58:59;6.00;;;3.27;;
3280;SDS011;1652;51.318;6.202;2023-06-26T09:01:26;3.43;;;3.00;;
3280;SDS011;1652;51.318;6.202;2023-06-26T09:03:53;11.32;;;3.95;;
3280;SDS011;1652;51.318;6.202;2023-06-26T09:06:21;6.55;;;2.97;;
3280;SDS011;1652;51.318;6.202;2023-06-26T09:08:48;3.13;;;2.75;;
3280;SDS011;1652;51.318;6.202;2023-06-26T09:11:14;2.80;;;2.60;;
3280;SDS011;1652;51.318;6.202;2023-06-26T09:13:42;4.28;;;3.58;;
3280;SDS011;1652;51.318;6.202;2023-06-26T09:16:10;8.70;;;2.50;;
3280;SDS011;1652;51.318;6.202;2023-06-26T09:18:37;3.93;;;2.83;;
3280;SDS011;1652;51.318;6.202;2023-06-26T09:21:07;2.72;;;2.10;;
3280;SDS011;1652;51.318;6.202;2023-06-26T09:23:35;7.80;;;2.73;;
3280;SDS011;1652;51.318;6.202;2023-06-26T09:26:03;4.33;;;2.87;;
3280;SDS011;1652;51.318;6.202;2023-06-26T09:28:35;4.57;;;3.80;;
3280;SDS011;1652;51.318;6.202;2023-06-26T09:31:03;3.23;;;2.47;;
3280;SDS011;1652;51.318;6.202;2023-06-26T09:33:37;2.93;;;2.53;;
3280;SDS011;1652;51.318;6.202;2023-06-26T09:36:05;2.07;;;1.87;;
3280;SDS011;1652;51.318;6.202;2023-06-26T09:38:34;4.00;;;2.77;;
3280;SDS011;1652;51.318;6.202;2023-06-26T09:41:02;2.50;;;1.87;;
3280;SDS011;1652;51.318;6.202;2023-06-26T09:43:30;4.77;;;1.97;;
3280;SDS011;1652;51.318;6.202;2023-06-26T09:45:58;5.23;;;2.53;;
3280;SDS011;1652;51.318;6.202;2023-06-26T09:48:28;4.13;;;1.90;;
3280;SDS011;1652;51.318;6.202;2023-06-26T09:50:55;2.47;;;1.70;;
3280;SDS011;1652;51.318;6.202;2023-06-26T09:53:38;2.00;;;1.75;;
3280;SDS011;1652;51.318;6.202;2023-06-26T09:56:14;13.47;;;2.07;;
3280;SDS011;1652;51.318;6.202;2023-06-26T09:58:43;2.00;;;1.80;;
3280;SDS011;1652;51.318;6.202;2023-06-26T10:01:11;1.40;;;1.30;;
3280;SDS011;1652;51.318;6.202;2023-06-26T10:03:38;6.50;;;1.50;;
3280;SDS011;1652;51.318;6.202;2023-06-26T10:06:05;2.20;;;1.77;;
3280;SDS011;1652;51.318;6.202;2023-06-26T10:08:33;1.90;;;1.80;;
3280;SDS011;1652;51.318;6.202;2023-06-26T10:11:02;5.13;;;1.93;;
3280;SDS011;1652;51.318;6.202;2023-06-26T10:13:31;1.30;;;1.20;;
3280;SDS011;1652;51.318;6.202;2023-06-26T10:16:01;3.17;;;1.60;;
3280;SDS011;1652;51.318;6.202;2023-06-26T10:18:28;2.80;;;2.33;;
3280;SDS011;1652;51.318;6.202;2023-06-26T10:20:59;1.87;;;1.50;;
3280;SDS011;1652;51.318;6.202;2023-06-26T10:23:27;4.00;;;1.60;;
3280;SDS011;1652;51.318;6.202;2023-06-26T10:25:55;6.77;;;1.80;;
3280;SDS011;1652;51.318;6.202;2023-06-26T10:28:29;1.40;;;1.30;;
3280;SDS011;1652;51.318;6.202;2023-06-26T10:41:45;1.87;;;1.47;;
3280;SDS011;1652;51.318;6.202;2023-06-26T10:55:57;2.37;;;1.00;;
3280;SDS011;1652;51.318;6.202;2023-06-26T10:58:39;2.63;;;1.83;;
3280;SDS011;1652;51.318;6.202;2023-06-26T11:03:39;7.30;;;1.00;;
3280;SDS011;1652;51.318;6.202;2023-06-26T11:06:10;1.47;;;0.90;;
3280;SDS011;1652;51.318;6.202;2023-06-26T11:08:51;8.00;;;1.37;;
3280;SDS011;1652;51.318;6.202;2023-06-26T11:11:21;1.90;;;1.13;;
3280;SDS011;1652;51.318;6.202;2023-06-26T11:13:48;3.00;;;0.90;;
3280;SDS011;1652;51.318;6.202;2023-06-26T11:16:16;3.33;;;1.13;;
3280;SDS011;1652;51.318;6.202;2023-06-26T11:18:43;6.23;;;3.80;;
3280;SDS011;1652;51.318;6.202;2023-06-26T11:21:11;2.90;;;1.40;;
3280;SDS011;1652;51.318;6.202;2023-06-26T11:23:41;32.80;;;2.47;;
3280;SDS011;1652;51.318;6.202;2023-06-26T11:26:18;14.63;;;13.13;;
3280;SDS011;1652;51.318;6.202;2023-06-26T11:28:48;2.43;;;1.83;;
3280;SDS011;1652;51.318;6.202;2023-06-26T11:33:53;2.87;;;0.97;;
3280;SDS011;1652;51.318;6.202;2023-06-26T11:36:22;2.50;;;1.10;;
3280;SDS011;1652;51.318;6.202;2023-06-26T11:38:54;5.80;;;1.20;;
3280;SDS011;1652;51.318;6.202;2023-06-26T11:41:23;2.40;;;1.00;;
3280;SDS011;1652;51.318;6.202;2023-06-26T11:43:54;2.77;;;1.10;;
3280;SDS011;1652;51.318;6.202;2023-06-26T11:46:22;4.20;;;1.13;;
3280;SDS011;1652;51.318;6.202;2023-06-26T11:48:49;2.43;;;1.27;;
3280;SDS011;1652;51.318;6.202;2023-06-26T11:51:16;3.83;;;1.03;;
3280;SDS011;1652;51.318;6.202;2023-06-26T11:53:44;2.33;;;1.20;;
3280;SDS011;1652;51.318;6.202;2023-06-26T11:56:13;5.03;;;1.40;;
3280;SDS011;1652;51.318;6.202;2023-06-26T11:59:00;2.50;;;1.10;;
3280;SDS011;1652;51.318;6.202;2023-06-26T12:01:36;1.63;;;1.03;;
3280;SDS011;1652;51.318;6.202;2023-06-26T12:04:13;4.97;;;0.90;;
3280;SDS011;1652;51.318;6.202;2023-06-26T12:06:45;3.87;;;1.47;;
3280;SDS011;1652;51.318;6.202;2023-06-26T12:09:14;3.07;;;1.00;;
3280;SDS011;1652;51.318;6.202;2023-06-26T12:11:43;2.83;;;1.27;;
3280;SDS011;1652;51.318;6.202;2023-06-26T12:14:11;2.40;;;1.90;;
3280;SDS011;1652;51.318;6.202;2023-06-26T12:16:41;2.33;;;0.87;;
3280;SDS011;1652;51.318;6.202;2023-06-26T12:19:09;6.10;;;1.60;;
3280;SDS011;1652;51.318;6.202;2023-06-26T12:24:13;5.27;;;1.60;;
3280;SDS011;1652;51.318;6.202;2023-06-26T12:26:45;5.00;;;1.80;;
3280;SDS011;1652;51.318;6.202;2023-06-26T12:29:14;2.60;;;0.87;;
3280;SDS011;1652;51.318;6.202;2023-06-26T12:31:46;2.33;;;1.80;;
3280;SDS011;1652;51.318;6.202;2023-06-26T12:34:19;3.03;;;1.43;;
3280;SDS011;1652;51.318;6.202;2023-06-26T12:36:50;4.30;;;1.03;;
3280;SDS011;1652;51.318;6.202;2023-06-26T12:39:18;1.20;;;1.10;;
3280;SDS011;1652;51.318;6.202;2023-06-26T12:41:48;4.50;;;1.90;;
3280;SDS011;1652;51.318;6.202;2023-06-26T12:44:26;3.63;;;1.40;;
3280;SDS011;1652;51.318;6.202;2023-06-26T12:46:58;10.53;;;1.57;;
3280;SDS011;1652;51.318;6.202;2023-06-26T12:49:33;5.93;;;1.30;;
3280;SDS011;1652;51.318;6.202;2023-06-26T12:52:01;6.40;;;1.20;;
3280;SDS011;1652;51.318;6.202;2023-06-26T12:54:30;1.43;;;1.33;;
3280;SDS011;1652;51.318;6.202;2023-06-26T12:56:58;6.00;;;4.23;;
3280;SDS011;1652;51.318;6.202;2023-06-26T12:59:25;5.80;;;1.83;;
3280;SDS011;1652;51.318;6.202;2023-06-26T13:01:52;8.20;;;1.27;;
3280;SDS011;1652;51.318;6.202;2023-06-26T13:04:19;4.20;;;2.07;;
3280;SDS011;1652;51.318;6.202;2023-06-26T13:06:46;2.90;;;1.10;;
3280;SDS011;1652;51.318;6.202;2023-06-26T13:09:13;3.03;;;1.30;;
3280;SDS011;1652;51.318;6.202;2023-06-26T13:11:40;3.20;;;1.60;;
3280;SDS011;1652;51.318;6.202;2023-06-26T13:14:07;3.57;;;1.63;;
3280;SDS011;1652;51.318;6.202;2023-06-26T13:16:37;1.93;;;1.43;;
3280;SDS011;1652;51.318;6.202;2023-06-26T13:19:04;9.37;;;1.80;;
3280;SDS011;1652;51.318;6.202;2023-06-26T13:21:32;1.30;;;1.20;;
3280;SDS011;1652;51.318;6.202;2023-06-26T13:24:00;1.37;;;1.27;;
3280;SDS011;1652;51.318;6.202;2023-06-26T13:26:27;3.20;;;1.07;;
3280;SDS011;1652;51.318;6.202;2023-06-26T13:28:58;1.37;;;1.27;;
3280;SDS011;1652;51.318;6.202;2023-06-26T13:31:25;5.70;;;1.37;;
3280;SDS011;1652;51.318;6.202;2023-06-26T13:33:52;4.43;;;1.33;;
3280;SDS011;1652;51.318;6.202;2023-06-26T13:36:19;1.40;;;1.30;;
3280;SDS011;1652;51.318;6.202;2023-06-26T13:38:47;4.80;;;1.73;;
3280;SDS011;1652;51.318;6.202;2023-06-26T13:41:25;3.43;;;2.00;;
3280;SDS011;1652;51.318;6.202;2023-06-26T13:43:52;5.27;;;1.80;;
3280;SDS011;1652;51.318;6.202;2023-06-26T13:46:28;3.10;;;2.27;;
3280;SDS011;1652;51.318;6.202;2023-06-26T13:48:55;2.87;;;1.47;;
3280;SDS011;1652;51.318;6.202;2023-06-26T13:51:22;5.03;;;2.27;;
3280;SDS011;1652;51.318;6.202;2023-06-26T13:53:49;1.53;;;1.30;;
3280;SDS011;1652;51.318;6.202;2023-06-26T13:56:16;2.40;;;1.20;;
3280;SDS011;1652;51.318;6.202;2023-06-26T13:58:43;1.27;;;1.10;;
3280;SDS011;1652;51.318;6.202;2023-06-26T14:01:10;3.20;;;1.60;;
3280;SDS011;1652;51.318;6.202;2023-06-26T14:03:39;3.30;;;1.87;;
3280;SDS011;1652;51.318;6.202;2023-06-26T14:06:06;3.17;;;1.50;;
3280;SDS011;1652;51.318;6.202;2023-06-26T14:08:33;47.37;;;32.13;;
3280;SDS011;1652;51.318;6.202;2023-06-26T14:11:00;4.60;;;1.37;;
3280;SDS011;1652;51.318;6.202;2023-06-26T14:13:27;8.93;;;1.63;;
3280;SDS011;1652;51.318;6.202;2023-06-26T14:15:54;10.63;;;1.33;;
3280;SDS011;1652;51.318;6.202;2023-06-26T14:18:22;3.43;;;1.13;;
3280;SDS011;1652;51.318;6.202;2023-06-26T14:20:50;2.17;;;1.13;;
3280;SDS011;1652;51.318;6.202;2023-06-26T14:23:18;7.60;;;1.20;;
3280;SDS011;1652;51.318;6.202;2023-06-26T14:25:45;5.33;;;1.30;;
3280;SDS011;1652;51.318;6.202;2023-06-26T14:28:14;1.87;;;1.77;;
3280;SDS011;1652;51.318;6.202;2023-06-26T14:30:41;5.30;;;0.80;;
3280;SDS011;1652;51.318;6.202;2023-06-26T14:33:09;3.03;;;1.30;;
3280;SDS011;1652;51.318;6.202;2023-06-26T14:35:36;3.70;;;1.67;;
3280;SDS011;1652;51.318;6.202;2023-06-26T14:38:02;1.10;;;1.00;;
3280;SDS011;1652;51.318;6.202;2023-06-26T14:40:29;6.47;;;4.23;;
3280;SDS011;1652;51.318;6.202;2023-06-26T14:42:57;1.57;;;1.47;;
3280;SDS011;1652;51.318;6.202;2023-06-26T14:45:24;4.23;;;1.60;;
3280;SDS011;1652;51.318;6.202;2023-06-26T14:47:52;3.20;;;2.00;;
3280;SDS011;1652;51.318;6.202;2023-06-26T14:50:19;1.40;;;1.30;;
3280;SDS011;1652;51.318;6.202;2023-06-26T14:52:46;1.67;;;1.27;;
3280;SDS011;1652;51.318;6.202;2023-06-26T14:55:12;7.47;;;1.10;;
3280;SDS011;1652;51.318;6.202;2023-06-26T14:57:39;2.60;;;1.10;;
3280;SDS011;1652;51.318;6.202;2023-06-26T15:00:06;3.90;;;1.17;;
3280;SDS011;1652;51.318;6.202;2023-06-26T15:02:34;2.67;;;1.00;;
3280;SDS011;1652;51.318;6.202;2023-06-26T15:05:01;1.90;;;1.57;;
3280;SDS011;1652;51.318;6.202;2023-06-26T15:07:28;5.00;;;1.10;;
3280;SDS011;1652;51.318;6.202;2023-06-26T15:09:55;1.33;;;1.23;;
3280;SDS011;1652;51.318;6.202;2023-06-26T15:12:23;1.50;;;1.03;;
3280;SDS011;1652;51.318;6.202;2023-06-26T15:14:49;7.70;;;1.50;;
3280;SDS011;1652;51.318;6.202;2023-06-26T15:17:18;1.37;;;1.13;;
3280;SDS011;1652;51.318;6.202;2023-06-26T15:19:45;3.20;;;2.40;;
3280;SDS011;1652;51.318;6.202;2023-06-26T15:22:12;3.50;;;2.03;;
3280;SDS011;1652;51.318;6.202;2023-06-26T15:24:39;2.80;;;1.17;;
3280;SDS011;1652;51.318;6.202;2023-06-26T15:27:06;4.60;;;1.07;;
3280;SDS011;1652;51.318;6.202;2023-06-26T15:29:33;1.97;;;1.30;;
3280;SDS011;1652;51.318;6.202;2023-06-26T15:32:00;2.33;;;1.20;;
3280;SDS011;1652;51.318;6.202;2023-06-26T15:34:28;1.37;;;1.27;;
3280;SDS011;1652;51.318;6.202;2023-06-26T15:36:54;1.57;;;1.10;;
3280;SDS011;1652;51.318;6.202;2023-06-26T15:39:21;4.60;;;1.20;;
3280;SDS011;1652;51.318;6.202;2023-06-26T15:41:48;2.30;;;1.33;;
3280;SDS011;1652;51.318;6.202;2023-06-26T15:44:15;4.43;;;1.40;;
3280;SDS011;1652;51.318;6.202;2023-06-26T15:46:42;5.17;;;1.00;;
3280;SDS011;1652;51.318;6.202;2023-06-26T15:49:09;1.30;;;1.10;;
3280;SDS011;1652;51.318;6.202;2023-06-26T15:51:36;1.27;;;1.00;;
3280;SDS011;1652;51.318;6.202;2023-06-26T15:54:04;6.33;;;1.20;;